DFLOC ENSB-ZZZZ
Flight info
| Callsign | DFLOC |
|---|---|
| Flight time | N/A |
| Altitude | |
| Route | |
| Aircraft | C208 |
Departure
| Time | 2026-05-07 20:11 |
|---|---|
| Airport | Svalbard Airport, Longyear (ENSB) |
Arrival
| Time | N/A |
|---|---|
| Airport | ZZZZ |
| Time | Latitude | Longitude | Altitude | Speed | Heading |
|---|---|---|---|---|---|
| 2026-05-07 20:02 | 78.24658 | 15.48632 | 85 ft | 0 kts | 43° |
| 2026-05-07 20:07 | 78.24658 | 15.48636 | 85 ft | 2 kts | 45° |
| 2026-05-07 20:07 | 78.24659 | 15.48642 | 85 ft | 0 kts | 60° |
| 2026-05-07 20:07 | 78.24643 | 15.48741 | 87 ft | 11 kts | 171° |
| 2026-05-07 20:08 | 78.24584 | 15.48303 | 84 ft | 24 kts | 255° |
| 2026-05-07 20:08 | 78.24548 | 15.47856 | 85 ft | 17 kts | 281° |
| 2026-05-07 20:08 | 78.24595 | 15.47055 | 83 ft | 30 kts | 285° |
| 2026-05-07 20:08 | 78.24654 | 15.45985 | 82 ft | 31 kts | 279° |
| 2026-05-07 20:09 | 78.24664 | 15.45655 | 83 ft | 7 kts | 175° |
| 2026-05-07 20:09 | 78.24658 | 15.45702 | 84 ft | 0 kts | 109° |
| 2026-05-07 20:10 | 78.24658 | 15.45703 | 84 ft | 0 kts | 109° |
| 2026-05-07 20:10 | 78.24603 | 15.46703 | 86 ft | 69 kts | 105° |
| 2026-05-07 20:10 | 78.24434 | 15.49855 | 290 ft | 111 kts | 102° |
| 2026-05-07 20:11 | 78.24234 | 15.53831 | 649 ft | 127 kts | 101° |
| 2026-05-07 20:11 | 78.24292 | 15.58207 | 867 ft | 134 kts | 65° |
| 2026-05-07 20:11 | 78.24923 | 15.61266 | 765 ft | 130 kts | 23° |
| 2026-05-07 20:11 | 78.25776 | 15.61396 | 691 ft | 128 kts | 342° |
| 2026-05-07 20:12 | 78.26450 | 15.58687 | 666 ft | 122 kts | 301° |
| 2026-05-07 20:12 | 78.26692 | 15.54765 | 684 ft | 120 kts | 281° |
| 2026-05-07 20:12 | 78.26872 | 15.50887 | 784 ft | 113 kts | 284° |
| 2026-05-07 20:12 | 78.27041 | 15.47090 | 827 ft | 114 kts | 281° |
| 2026-05-07 20:13 | 78.27151 | 15.43286 | 916 ft | 112 kts | 275° |
| 2026-05-07 20:13 | 78.27021 | 15.39426 | 883 ft | 119 kts | 244° |
| 2026-05-07 20:13 | 78.26391 | 15.36963 | 894 ft | 123 kts | 196° |
| 2026-05-07 20:13 | 78.25548 | 15.36410 | 950 ft | 119 kts | 170° |
| 2026-05-07 20:14 | 78.24938 | 15.38894 | 747 ft | 124 kts | 104° |
| 2026-05-07 20:14 | 78.24845 | 15.42314 | 237 ft | 84 kts | 78° |
| 2026-05-07 20:14 | 78.24721 | 15.44658 | 84 ft | 59 kts | 103° |
| 2026-05-07 20:14 | 78.24618 | 15.46427 | 84 ft | 62 kts | 105° |
| 2026-05-07 20:15 | 78.24472 | 15.49104 | 227 ft | 91 kts | 101° |
| 2026-05-07 20:15 | 78.24305 | 15.52598 | 581 ft | 113 kts | 102° |
| 2026-05-07 20:15 | 78.24159 | 15.56606 | 1029 ft | 124 kts | 92° |
| 2026-05-07 20:15 | 78.24466 | 15.60772 | 1298 ft | 148 kts | 43° |
| 2026-05-07 20:16 | 78.25475 | 15.61846 | 1441 ft | 164 kts | 342° |
| 2026-05-07 20:16 | 78.26150 | 15.58448 | 1497 ft | 0 kts | 292° |
| 2026-05-07 20:16 | 78.24658 | 15.48632 | 84 ft | 0 kts | 43° |
| 2026-05-07 20:22 | 78.24661 | 15.48657 | 85 ft | 2 kts | 74° |
| 2026-05-07 20:22 | 78.24621 | 15.48727 | 85 ft | 8 kts | 195° |
| 2026-05-07 20:22 | 78.24597 | 15.48624 | 86 ft | 1 kts | 249° |
| 2026-05-07 20:22 | 78.24595 | 15.48599 | 85 ft | 0 kts | 246° |
| 2026-05-07 20:23 | 78.24595 | 15.48598 | 85 ft | 0 kts | 246° |
| 2026-05-07 20:23 | 78.24595 | 15.48596 | 85 ft | 1 kts | 248° |
| 2026-05-07 20:24 | 78.24590 | 15.48456 | 85 ft | 10 kts | 264° |
| 2026-05-07 20:24 | 78.24563 | 15.48060 | 87 ft | 6 kts | 220° |
| 2026-05-07 20:24 | 78.24544 | 15.48016 | 86 ft | 5 kts | 188° |
| 2026-05-07 20:24 | 78.24524 | 15.48110 | 88 ft | 3 kts | 110° |
| 2026-05-07 20:25 | 78.24490 | 15.48683 | 87 ft | 53 kts | 105° |
| 2026-05-07 20:25 | 78.24331 | 15.51445 | 202 ft | 106 kts | 105° |
| 2026-05-07 20:25 | 78.24131 | 15.55008 | 621 ft | 110 kts | 106° |
| 2026-05-07 20:25 | 78.24127 | 15.58973 | 857 ft | 130 kts | 71° |
| 2026-05-07 20:26 | 78.24779 | 15.62402 | 959 ft | 150 kts | 24° |
| 2026-05-07 20:26 | 78.25800 | 15.62356 | 1191 ft | 155 kts | 335° |
| 2026-05-07 20:26 | 78.26462 | 15.58396 | 1446 ft | 155 kts | 290° |
| 2026-05-07 20:26 | 78.26721 | 15.53422 | 1175 ft | 147 kts | 282° |
| 2026-05-07 20:27 | 78.26883 | 15.48538 | 897 ft | 146 kts | 271° |
| 2026-05-07 20:27 | 78.26945 | 15.43779 | 865 ft | 133 kts | 278° |
| 2026-05-07 20:27 | 78.27118 | 15.39492 | 900 ft | 125 kts | 283° |
| 2026-05-07 20:27 | 78.27302 | 15.35428 | 989 ft | 121 kts | 283° |
| 2026-05-07 20:28 | 78.27478 | 15.31411 | 1041 ft | 119 kts | 280° |
| 2026-05-07 20:28 | 78.27589 | 15.27341 | 1016 ft | 123 kts | 273° |
| 2026-05-07 20:28 | 78.27382 | 15.23375 | 1051 ft | 120 kts | 234° |
| 2026-05-07 20:28 | 78.26704 | 15.21113 | 1000 ft | 124 kts | 197° |
| 2026-05-07 20:29 | 78.25888 | 15.21653 | 952 ft | 121 kts | 140° |
| 2026-05-07 20:29 | 78.25590 | 15.25367 | 805 ft | 127 kts | 91° |
| 2026-05-07 20:29 | 78.25531 | 15.29437 | 723 ft | 111 kts | 100° |
| 2026-05-07 20:29 | 78.25398 | 15.32367 | 681 ft | 74 kts | 101° |
| 2026-05-07 20:30 | 78.25257 | 15.35126 | 602 ft | 90 kts | 103° |
| 2026-05-07 20:30 | 78.25085 | 15.38171 | 420 ft | 93 kts | 105° |
| 2026-05-07 20:30 | 78.24912 | 15.41199 | 190 ft | 89 kts | 105° |
| 2026-05-07 20:30 | 78.24762 | 15.43879 | 96 ft | 74 kts | 104° |
| 2026-05-07 20:31 | 78.24639 | 15.46086 | 83 ft | 61 kts | 106° |
| 2026-05-07 20:31 | 78.24494 | 15.48717 | 124 ft | 104 kts | 104° |
| 2026-05-07 20:31 | 78.24302 | 15.52448 | 469 ft | 119 kts | 103° |
| 2026-05-07 20:31 | 78.24261 | 15.56534 | 875 ft | 127 kts | 76° |
| 2026-05-07 20:32 | 78.24798 | 15.60028 | 1066 ft | 135 kts | 31° |
| 2026-05-07 20:32 | 78.25726 | 15.60692 | 1166 ft | 140 kts | 348° |
| 2026-05-07 20:32 | 78.26549 | 15.58201 | 1053 ft | 141 kts | 311° |
| 2026-05-07 20:32 | 78.27019 | 15.53992 | 902 ft | 141 kts | 291° |
| 2026-05-07 20:33 | 78.27285 | 15.49365 | 825 ft | 137 kts | 282° |
| 2026-05-07 20:33 | 78.27469 | 15.45007 | 968 ft | 124 kts | 281° |
| 2026-05-07 20:33 | 78.27610 | 15.41030 | 1165 ft | 112 kts | 277° |
| 2026-05-07 20:33 | 78.27688 | 15.37141 | 1189 ft | 119 kts | 275° |
| 2026-05-07 20:34 | 78.27734 | 15.33097 | 1237 ft | 119 kts | 273° |
| 2026-05-07 20:34 | 78.27775 | 15.28947 | 1172 ft | 125 kts | 268° |
| 2026-05-07 20:34 | 78.27562 | 15.24825 | 1129 ft | 126 kts | 240° |
| 2026-05-07 20:34 | 78.26946 | 15.21771 | 1065 ft | 127 kts | 209° |
| 2026-05-07 20:35 | 78.26132 | 15.20498 | 1130 ft | 118 kts | 179° |
| 2026-05-07 20:35 | 78.25579 | 15.22653 | 1249 ft | 115 kts | 99° |
| 2026-05-07 20:35 | 78.25523 | 15.26810 | 1014 ft | 126 kts | 95° |
| 2026-05-07 20:35 | 78.25401 | 15.31078 | 783 ft | 126 kts | 99° |
| 2026-05-07 20:36 | 78.25238 | 15.35091 | 567 ft | 100 kts | 102° |
| 2026-05-07 20:36 | 78.25100 | 15.37856 | 340 ft | 74 kts | 105° |
| 2026-05-07 20:36 | 78.24967 | 15.40243 | 173 ft | 72 kts | 106° |
| 2026-05-07 20:36 | 78.24847 | 15.42346 | 81 ft | 57 kts | 104° |
| 2026-05-07 20:37 | 78.24741 | 15.44206 | 88 ft | 73 kts | 107° |
| 2026-05-07 20:37 | 78.24599 | 15.46785 | 85 ft | 76 kts | 105° |
| 2026-05-07 20:37 | 78.24468 | 15.49124 | 86 ft | 68 kts | 104° |
| 2026-05-07 20:37 | 78.24322 | 15.51852 | 201 ft | 97 kts | 103° |
| 2026-05-07 20:38 | 78.24363 | 15.55185 | 541 ft | 105 kts | 63° |
| 2026-05-07 20:38 | 78.24952 | 15.57231 | 883 ft | 112 kts | 8° |
| 2026-05-07 20:38 | 78.25648 | 15.55711 | 951 ft | 121 kts | 306° |
| 2026-05-07 20:38 | 78.25931 | 15.51683 | 799 ft | 131 kts | 283° |
| 2026-05-07 20:39 | 78.26126 | 15.47257 | 671 ft | 132 kts | 281° |
| 2026-05-07 20:39 | 78.26074 | 15.43011 | 608 ft | 123 kts | 242° |
| 2026-05-07 20:39 | 78.25489 | 15.40568 | 493 ft | 90 kts | 192° |
| 2026-05-07 20:39 | 78.24982 | 15.41213 | 262 ft | 73 kts | 131° |
| 2026-05-07 20:40 | 78.24795 | 15.43382 | 84 ft | 62 kts | 105° |
| 2026-05-07 20:40 | 78.24689 | 15.45145 | 84 ft | 47 kts | 106° |
| 2026-05-07 20:40 | 78.24598 | 15.46767 | 84 ft | 55 kts | 105° |
| 2026-05-07 20:40 | 78.24543 | 15.47746 | 85 ft | 32 kts | 103° |
| 2026-05-07 20:41 | 78.24593 | 15.48554 | 87 ft | 16 kts | 76° |
| 2026-05-07 20:41 | 78.24678 | 15.48639 | 87 ft | 15 kts | 290° |
| 2026-05-07 20:41 | 78.24682 | 15.48593 | 84 ft | 0 kts | 290° |